Time;durP1;ratioP1;P1;durP2;ratioP2;P2;SDS_P1;SDS_P2;PMS_P1;PMS_P2;Temp;Humidity;BMP_temperature;BMP_pressure;BME280_temperature;BME280_humidity;BME280_pressure;Samples;Min_cycle;Max_cycle;Signal;HPM_P1;HPM_P2
2023/12/25 00:00:32;;;;;;;14.15;4.95;;;;;;;10.66;100.00;100417.28;4878840;29;20076;-74
2023/12/25 00:02:58;;;;;;;14.38;4.88;;;;;;;10.64;100.00;100405.81;4886859;29;20032;-74
2023/12/25 00:05:23;;;;;;;12.00;4.45;;;;;;;10.65;100.00;100417.41;4887871;29;20024;-74
2023/12/25 00:07:48;;;;;;;11.73;3.97;;;;;;;10.65;100.00;100404.81;4881707;29;20035;-74
2023/12/25 00:10:13;;;;;;;11.75;4.10;;;;;;;10.66;100.00;100409.22;4894716;29;20059;-74
2023/12/25 00:12:39;;;;;;;12.25;4.32;;;;;;;10.64;100.00;100410.31;4881288;29;20036;-75
2023/12/25 00:15:05;;;;;;;8.85;3.95;;;;;;;10.64;100.00;100411.19;4897957;29;20046;-74
2023/12/25 00:17:31;;;;;;;9.73;3.58;;;;;;;10.63;100.00;100406.78;4901850;29;20537;-74
2023/12/25 00:19:56;;;;;;;8.38;3.50;;;;;;;10.65;100.00;100395.91;4883863;29;20040;-75
2023/12/25 00:22:21;;;;;;;10.30;3.65;;;;;;;10.64;100.00;100397.75;4905937;29;20355;-75
2023/12/25 00:24:47;;;;;;;12.73;3.92;;;;;;;10.64;100.00;100375.38;4885683;29;20148;-75
2023/12/25 00:27:12;;;;;;;9.68;3.53;;;;;;;10.64;100.00;100387.00;4884600;29;20031;-75
2023/12/25 00:29:37;;;;;;;12.57;3.90;;;;;;;10.64;100.00;100396.88;4881225;29;20036;-75
2023/12/25 00:32:03;;;;;;;11.50;3.75;;;;;;;10.64;100.00;100396.88;4887652;29;20115;-75
2023/12/25 00:34:29;;;;;;;11.63;4.03;;;;;;;10.65;100.00;100398.59;4907634;29;20055;-75
2023/12/25 00:36:54;;;;;;;10.05;3.30;;;;;;;10.66;100.00;100389.56;4889799;29;20043;-75
2023/12/25 00:39:19;;;;;;;10.70;3.70;;;;;;;10.65;100.00;100383.31;4884322;29;20028;-75
2023/12/25 00:41:44;;;;;;;10.18;3.83;;;;;;;10.66;100.00;100384.19;4898536;29;20477;-75
2023/12/25 00:44:10;;;;;;;10.65;3.65;;;;;;;10.65;100.00;100398.59;4897776;29;20025;-75
2023/12/25 00:46:35;;;;;;;13.85;4.13;;;;;;;10.65;100.00;100390.53;4876001;29;20501;-74
2023/12/25 00:49:00;;;;;;;8.30;3.70;;;;;;;10.65;100.00;100402.13;4881842;29;20033;-75
2023/12/25 00:51:25;;;;;;;11.13;3.80;;;;;;;10.66;100.00;100411.06;4883776;29;20031;-75
2023/12/25 00:53:51;;;;;;;14.13;4.20;;;;;;;10.66;100.00;100417.28;4897436;29;20040;-75
2023/12/25 00:56:16;;;;;;;11.18;3.50;;;;;;;10.67;100.00;100418.13;4880950;29;20195;-74
2023/12/25 00:58:41;;;;;;;10.88;3.75;;;;;;;10.66;100.00;100411.91;4889311;29;20052;-75
2023/12/25 01:01:07;;;;;;;12.25;4.25;;;;;;;10.66;100.00;100421.81;4904136;29;20500;-75
2023/12/25 01:03:32;;;;;;;11.32;4.07;;;;;;;10.66;100.00;100419.13;4886650;29;20119;-75
2023/12/25 01:05:57;;;;;;;12.65;3.90;;;;;;;10.67;100.00;100423.50;4882777;29;20028;-75
2023/12/25 01:08:23;;;;;;;16.25;4.30;;;;;;;10.66;100.00;100417.28;4899639;29;20024;-75
2023/12/25 01:10:48;;;;;;;9.40;3.42;;;;;;;10.66;100.00;100422.66;4880605;29;20056;-75
2023/12/25 01:13:13;;;;;;;9.75;3.50;;;;;;;10.66;100.00;100427.19;4899315;29;20373;-74
2023/12/25 01:15:39;;;;;;;10.82;4.38;;;;;;;10.66;100.00;100430.72;4879859;29;20060;-71
2023/12/25 01:18:04;;;;;;;12.70;4.20;;;;;;;10.68;100.00;100429.75;4895402;29;20469;-73
2023/12/25 01:20:29;;;;;;;13.40;4.20;;;;;;;10.68;100.00;100425.22;4882690;29;20136;-71
2023/12/25 01:22:55;;;;;;;12.15;4.30;;;;;;;10.68;100.00;100430.59;4905909;29;20036;-72
2023/12/25 01:25:20;;;;;;;12.30;4.13;;;;;;;10.67;100.00;100418.13;4895137;29;20079;-74
2023/12/25 01:27:46;;;;;;;15.75;4.70;;;;;;;10.69;100.00;100428.75;4880821;29;20350;-75
2023/12/25 01:30:12;;;;;;;12.15;3.92;;;;;;;10.69;100.00;100431.44;4898134;29;20052;-74
2023/12/25 01:32:37;;;;;;;11.93;4.57;;;;;;;10.69;100.00;100440.38;4895950;29;20115;-75
2023/12/25 01:35:04;;;;;;;15.63;4.30;;;;;;;10.68;100.00;100435.97;4894587;29;20501;-75
2023/12/25 01:37:29;;;;;;;14.13;4.40;;;;;;;10.70;100.00;100433.16;4902441;29;20039;-74
2023/12/25 01:39:55;;;;;;;12.98;4.55;;;;;;;10.71;100.00;100446.47;4906133;29;20027;-74
2023/12/25 01:42:21;;;;;;;13.27;5.30;;;;;;;10.70;100.00;100439.38;4885770;29;20127;-74
2023/12/25 01:44:47;;;;;;;16.15;5.00;;;;;;;10.70;100.00;100417.88;4899048;29;20578;-74
2023/12/25 01:47:14;;;;;;;14.55;5.32;;;;;;;10.69;100.00;100431.44;4894300;29;20123;-74
2023/12/25 01:49:39;;;;;;;14.75;5.10;;;;;;;10.69;100.00;100420.69;4904021;29;20103;-74
2023/12/25 01:52:05;;;;;;;17.20;5.75;;;;;;;10.68;100.00;100430.59;4902621;29;20031;-74
2023/12/25 01:54:32;;;;;;;15.93;5.30;;;;;;;10.67;100.00;100434.25;4878425;29;20519;-74
2023/12/25 01:56:58;;;;;;;14.23;5.05;;;;;;;10.68;100.00;100435.13;4896482;29;20025;-74
2023/12/25 01:59:28;;;;;;;16.98;6.13;;;;;;;10.67;100.00;100426.19;4904510;29;20086;-74
2023/12/25 02:01:53;;;;;;;18.08;5.43;;;;;;;10.67;100.00;100434.25;4895322;29;20040;-74
2023/12/25 02:04:18;;;;;;;13.90;5.55;;;;;;;10.68;100.00;100433.28;4883393;29;20028;-74
2023/12/25 02:06:44;;;;;;;14.40;5.68;;;;;;;10.70;100.00;100433.16;4879091;29;20032;-74
2023/12/25 02:09:10;;;;;;;16.13;6.28;;;;;;;10.68;100.00;100433.28;4880134;29;20404;-74
2023/12/25 02:11:40;;;;;;;13.85;5.25;;;;;;;10.70;100.00;100446.59;4900831;29;20024;-75
2023/12/25 02:14:06;;;;;;;15.65;6.13;;;;;;;10.71;100.00;100442.94;4901639;29;20111;-74
2023/12/25 02:16:32;;;;;;;14.68;5.38;;;;;;;10.71;100.00;100449.16;4897716;29;20123;-74
2023/12/25 02:18:58;;;;;;;16.10;6.22;;;;;;;10.71;100.00;100465.28;4901251;29;20035;-74
2023/12/25 02:21:24;;;;;;;17.95;7.07;;;;;;;10.72;100.00;100468.81;4888224;29;20017;-75
2023/12/25 02:23:57;;;;;;;17.60;6.85;;;;;;;10.72;100.00;100464.31;4897800;29;20488;-75
2023/12/25 02:26:23;;;;;;;17.65;7.88;;;;;;;10.73;100.00;100452.59;4899082;29;20035;-75
2023/12/25 02:28:48;;;;;;;16.88;6.07;;;;;;;10.73;100.00;100444.53;4898456;29;20456;-74
2023/12/25 02:31:14;;;;;;;16.23;5.82;;;;;;;10.73;100.00;100449.91;4893980;29;20409;-74
2023/12/25 02:33:39;;;;;;;16.02;5.97;;;;;;;10.74;100.00;100456.97;4899342;29;20408;-75
2023/12/25 02:36:04;;;;;;;16.17;5.75;;;;;;;10.75;100.00;100460.53;4881149;29;20067;-74
2023/12/25 02:38:30;;;;;;;15.57;5.55;;;;;;;10.76;100.00;100457.72;4876391;29;20036;-74
2023/12/25 02:40:55;;;;;;;17.58;6.50;;;;;;;10.78;100.00;100453.06;4879510;29;20056;-74
2023/12/25 02:43:20;;;;;;;16.90;6.38;;;;;;;10.77;100.00;100451.34;4894760;29;20039;-75
2023/12/25 02:45:45;;;;;;;21.73;7.85;;;;;;;10.78;100.00;100458.44;4879008;29;20037;-74
2023/12/25 02:48:11;;;;;;;15.90;5.88;;;;;;;10.80;100.00;100458.31;4894273;29;20026;-74
2023/12/25 02:50:36;;;;;;;17.63;6.55;;;;;;;10.81;100.00;100460.88;4893565;29;20040;-74
2023/12/25 02:53:03;;;;;;;14.65;6.25;;;;;;;10.80;100.00;100469.91;4899936;29;20025;-74
2023/12/25 02:55:29;;;;;;;18.25;6.35;;;;;;;10.82;100.00;100470.66;4896571;29;20059;-74
2023/12/25 02:57:54;;;;;;;17.08;6.55;;;;;;;10.82;100.00;100476.03;4902794;29;20044;-75
2023/12/25 03:00:20;;;;;;;17.38;6.45;;;;;;;10.83;100.00;100480.44;4899116;29;20070;-75
2023/12/25 03:02:45;;;;;;;17.80;6.32;;;;;;;10.84;100.00;100489.34;4898577;29;20033;-74
2023/12/25 03:05:10;;;;;;;17.45;5.93;;;;;;;10.85;100.00;100480.31;4899291;29;20147;-75
2023/12/25 03:07:36;;;;;;;15.57;6.07;;;;;;;10.84;100.00;100482.13;4884803;29;20028;-74
2023/12/25 03:10:01;;;;;;;17.73;5.93;;;;;;;10.84;100.00;100474.06;4882011;29;20531;-75
2023/12/25 03:12:26;;;;;;;16.33;5.95;;;;;;;10.84;100.00;100471.38;4896118;29;20043;-74
2023/12/25 03:14:52;;;;;;;18.27;6.72;;;;;;;10.86;100.00;100470.41;4882744;29;20309;-74
2023/12/25 03:17:17;;;;;;;15.98;5.30;;;;;;;10.84;100.00;100468.69;4896797;29;20056;-74
2023/12/25 03:19:42;;;;;;;16.45;6.00;;;;;;;10.88;100.00;100472.00;4878565;29;20028;-74
2023/12/25 03:22:07;;;;;;;15.60;5.68;;;;;;;10.88;100.00;100463.06;4893487;29;20033;-74
2023/12/25 03:24:33;;;;;;;14.75;5.28;;;;;;;10.89;100.00;100462.09;4878110;29;20036;-75
2023/12/25 03:26:58;;;;;;;17.45;6.30;;;;;;;10.89;100.00;100467.47;4896950;29;20032;-74
2023/12/25 03:29:23;;;;;;;16.40;6.18;;;;;;;10.89;100.00;100467.47;4886496;29;20060;-74
2023/12/25 03:31:48;;;;;;;17.67;6.03;;;;;;;10.91;100.00;100468.19;4902141;29;20033;-74
2023/12/25 03:34:18;;;;;;;16.70;5.55;;;;;;;10.91;100.00;100479.81;4898674;29;20049;-74
2023/12/25 03:36:44;;;;;;;15.32;5.65;;;;;;;10.91;100.00;100489.69;4905806;29;20095;-74
2023/12/25 03:39:09;;;;;;;14.85;5.65;;;;;;;10.90;100.00;100482.63;4903047;29;20036;-74
2023/12/25 03:41:35;;;;;;;14.43;5.38;;;;;;;10.89;100.00;100487.13;4897117;29;20039;-75
2023/12/25 03:44:00;;;;;;;15.73;6.25;;;;;;;10.90;100.00;100490.69;4902025;29;20036;-74
2023/12/25 03:46:25;;;;;;;17.35;6.25;;;;;;;10.89;100.00;100480.91;4881007;29;20036;-75
2023/12/25 03:48:51;;;;;;;15.00;5.18;;;;;;;10.88;100.00;100484.56;4885129;29;20024;-74
2023/12/25 03:51:16;;;;;;;11.20;4.30;;;;;;;10.88;100.00;100495.31;4904423;29;20084;-75
2023/12/25 03:53:41;;;;;;;14.52;4.47;;;;;;;10.88;100.00;100490.81;4899830;29;20043;-74
2023/12/25 03:56:07;;;;;;;13.35;5.10;;;;;;;10.86;100.00;100494.59;4904857;29;20449;-72
2023/12/25 03:58:34;;;;;;;12.90;4.10;;;;;;;10.84;100.00;100500.94;4900791;29;20500;-72
2023/12/25 04:01:00;;;;;;;12.32;4.55;;;;;;;10.84;100.00;100517.06;4899011;29;20495;-72
2023/12/25 04:03:25;;;;;;;14.15;4.85;;;;;;;10.84;100.00;100505.47;4900330;29;20035;-72
2023/12/25 04:05:50;;;;;;;12.00;4.63;;;;;;;10.83;100.00;100503.75;4883688;29;20111;-73
2023/12/25 04:08:16;;;;;;;13.77;4.78;;;;;;;10.83;100.00;100506.44;4894626;29;20040;-72
2023/12/25 04:10:41;;;;;;;14.82;4.90;;;;;;;10.84;100.00;100502.78;4881001;29;20039;-72
2023/12/25 04:13:07;;;;;;;12.48;3.92;;;;;;;10.83;100.00;100501.06;4901189;29;20063;-72
2023/12/25 04:15:32;;;;;;;13.65;3.88;;;;;;;10.82;100.00;100491.28;4905781;29;20108;-71
2023/12/25 04:17:58;;;;;;;10.88;3.95;;;;;;;10.80;100.00;100496.78;4897883;29;20508;-72
2023/12/25 04:20:23;;;;;;;12.82;4.40;;;;;;;10.81;100.00;100494.97;4886085;29;20017;-72
2023/12/25 04:22:49;;;;;;;9.75;3.78;;;;;;;10.79;100.00;100487.03;4889766;29;20027;-72
2023/12/25 04:25:14;;;;;;;11.07;3.58;;;;;;;10.80;100.00;100479.81;4906718;29;20602;-72
2023/12/25 04:27:39;;;;;;;10.73;3.60;;;;;;;10.80;100.00;100482.50;4902166;29;20345;-72
2023/12/25 04:30:05;;;;;;;9.25;3.33;;;;;;;10.79;100.00;100473.59;4885837;29;20106;-72
2023/12/25 04:32:31;;;;;;;11.82;3.75;;;;;;;10.80;100.00;100491.41;4879885;29;20075;-73
2023/12/25 04:34:56;;;;;;;8.68;3.40;;;;;;;10.80;100.00;100483.34;4897760;29;20966;-72
2023/12/25 04:37:22;;;;;;;7.25;3.20;;;;;;;10.82;100.00;100473.34;4901116;29;20024;-72
2023/12/25 04:39:47;;;;;;;9.88;3.45;;;;;;;10.81;100.00;100474.31;4903553;29;20481;-72
2023/12/25 04:42:13;;;;;;;9.73;2.85;;;;;;;10.82;100.00;100472.47;4906098;29;20024;-71
2023/12/25 04:44:38;;;;;;;6.57;2.88;;;;;;;10.82;100.00;100472.47;4905813;29;20032;-72
2023/12/25 04:47:04;;;;;;;5.38;2.60;;;;;;;10.82;100.00;100470.66;4894705;29;20452;-72
2023/12/25 04:49:29;;;;;;;8.70;2.80;;;;;;;10.82;100.00;100462.59;4903218;29;20457;-73
2023/12/25 04:51:54;;;;;;;7.60;2.78;;;;;;;10.83;100.00;100463.44;4897049;29;20032;-72
2023/12/25 04:54:20;;;;;;;6.45;2.60;;;;;;;10.83;100.00;100471.50;4903419;29;20063;-72
2023/12/25 04:56:45;;;;;;;7.18;2.92;;;;;;;10.81;100.00;100468.94;4899292;29;20039;-72
2023/12/25 04:59:10;;;;;;;7.18;3.00;;;;;;;10.81;100.00;100463.56;4903646;29;20481;-72
2023/12/25 05:01:36;;;;;;;6.72;2.72;;;;;;;10.80;100.00;100450.25;4887960;29;20489;-71
2023/12/25 05:04:02;;;;;;;9.05;3.08;;;;;;;10.78;100.00;100447.69;4902685;29;20549;-72
2023/12/25 05:06:27;;;;;;;8.45;3.10;;;;;;;10.79;100.00;100464.66;4896636;29;20040;-71
2023/12/25 05:08:52;;;;;;;10.65;3.40;;;;;;;10.77;100.00;100455.88;4899569;29;20033;-72
2023/12/25 05:11:18;;;;;;;12.68;3.83;;;;;;;10.76;100.00;100446.97;4902280;29;20509;-72
2023/12/25 05:13:43;;;;;;;14.00;3.90;;;;;;;10.74;100.00;100456.97;4899676;29;20028;-72
2023/12/25 05:16:08;;;;;;;12.85;3.40;;;;;;;10.74;100.00;100456.13;4907317;29;20109;-73
2023/12/25 05:18:33;;;;;;;10.95;3.83;;;;;;;10.72;100.00;100453.56;4898039;29;20032;-71
2023/12/25 05:20:59;;;;;;;11.93;3.17;;;;;;;10.72;100.00;100458.94;4905738;29;20051;-72
2023/12/25 05:23:24;;;;;;;11.05;3.30;;;;;;;10.71;100.00;100461.75;4904026;29;20036;-72
2023/12/25 05:25:49;;;;;;;10.30;3.58;;;;;;;10.70;100.00;100458.19;4887216;29;20538;-72
2023/12/25 05:28:15;;;;;;;10.57;3.45;;;;;;;10.68;100.00;100446.72;4897953;29;20494;-72
2023/12/25 05:30:40;;;;;;;12.68;3.90;;;;;;;10.68;100.00;100437.81;4893523;29;20021;-73
2023/12/25 05:33:05;;;;;;;10.63;3.30;;;;;;;10.68;100.00;100452.09;4900819;29;20083;-72
2023/12/25 05:35:31;;;;;;;11.23;3.75;;;;;;;10.68;100.00;100446.72;4902959;29;20092;-72
2023/12/25 05:37:56;;;;;;;11.60;3.60;;;;;;;10.68;100.00;100446.72;4901509;29;20043;-72
2023/12/25 05:40:22;;;;;;;13.20;4.40;;;;;;;10.68;100.00;100449.41;4893632;29;20040;-71
2023/12/25 05:42:48;;;;;;;11.07;3.70;;;;;;;10.67;100.00;100453.06;4878252;29;20381;-72
2023/12/25 05:45:13;;;;;;;13.60;4.07;;;;;;;10.68;100.00;100462.84;4896348;29;20385;-72
2023/12/25 05:47:39;;;;;;;12.10;4.07;;;;;;;10.69;100.00;100447.56;4901351;29;20035;-71
2023/12/25 05:50:07;;;;;;;12.63;3.90;;;;;;;10.69;100.00;100453.81;4903166;29;20500;-72
2023/12/25 05:52:33;;;;;;;10.73;3.55;;;;;;;10.70;100.00;100454.66;4899221;29;20158;-72
2023/12/25 05:55:00;;;;;;;10.77;3.50;;;;;;;10.71;100.00;100451.84;4897986;29;20069;-73
2023/12/25 05:57:25;;;;;;;11.43;4.00;;;;;;;10.70;100.00;100444.75;4904155;29;20227;-72
2023/12/25 05:59:50;;;;;;;10.60;3.50;;;;;;;10.72;100.00;100447.31;4894530;29;20097;-72
2023/12/25 06:02:16;;;;;;;11.10;3.35;;;;;;;10.71;100.00;100445.63;4901608;29;20036;-72
2023/12/25 06:04:42;;;;;;;11.80;3.90;;;;;;;10.70;100.00;100450.13;4885348;29;20040;-72
2023/12/25 06:07:08;;;;;;;11.07;3.83;;;;;;;10.71;100.00;100461.75;4901234;29;20044;-72
2023/12/25 06:09:33;;;;;;;12.48;3.95;;;;;;;10.68;100.00;100456.63;4886805;29;20038;-72
2023/12/25 06:11:58;;;;;;;13.63;3.65;;;;;;;10.67;100.00;100455.75;4897572;29;20040;-71
2023/12/25 06:14:24;;;;;;;11.90;3.75;;;;;;;10.67;100.00;100458.44;4876734;29;20493;-71
2023/12/25 06:16:49;;;;;;;11.15;3.53;;;;;;;10.67;100.00;100455.75;4891060;29;20059;-73
2023/12/25 06:19:14;;;;;;;13.30;3.50;;;;;;;10.67;100.00;100461.13;4872328;29;20048;-74
2023/12/25 06:21:40;;;;;;;10.77;3.30;;;;;;;10.67;100.00;100463.81;4879530;29;20032;-74
2023/12/25 06:24:05;;;;;;;11.35;3.38;;;;;;;10.66;100.00;100475.56;4904460;29;20028;-74
2023/12/25 06:26:31;;;;;;;10.10;3.63;;;;;;;10.68;100.00;100465.53;4881746;29;20066;-74
2023/12/25 06:28:56;;;;;;;9.50;3.42;;;;;;;10.67;100.00;100450.38;4876252;29;20119;-73
2023/12/25 06:31:21;;;;;;;9.00;3.20;;;;;;;10.69;100.00;100452.94;4896128;29;20032;-75
2023/12/25 06:33:47;;;;;;;9.38;3.20;;;;;;;10.70;100.00;100451.97;4880961;29;20055;-74
2023/12/25 06:36:12;;;;;;;7.85;2.95;;;;;;;10.68;100.00;100456.63;4898706;29;20568;-75
2023/12/25 06:38:37;;;;;;;10.80;3.30;;;;;;;10.69;100.00;100459.19;4897640;29;20500;-74
2023/12/25 06:41:03;;;;;;;9.50;3.30;;;;;;;10.69;100.00;100458.31;4876389;29;20028;-74
2023/12/25 06:43:29;;;;;;;10.50;3.33;;;;;;;10.69;100.00;100464.56;4884747;29;20059;-74
2023/12/25 06:45:54;;;;;;;9.02;3.38;;;;;;;10.69;100.00;100458.31;4884523;29;20076;-75
2023/12/25 06:48:19;;;;;;;11.05;3.47;;;;;;;10.70;100.00;100451.97;4899183;29;20786;-74
2023/12/25 06:50:45;;;;;;;11.18;3.90;;;;;;;10.70;100.00;100460.03;4891664;29;20036;-74
2023/12/25 06:53:10;;;;;;;13.00;4.13;;;;;;;10.69;100.00;100472.63;4877801;29;20029;-75
2023/12/25 06:55:35;;;;;;;11.73;3.63;;;;;;;10.69;100.00;100459.19;4901306;29;20111;-74
2023/12/25 06:58:01;;;;;;;14.05;4.45;;;;;;;10.70;100.00;100454.66;4879832;29;20032;-74
2023/12/25 07:00:26;;;;;;;11.70;3.70;;;;;;;10.70;100.00;100460.03;4897312;29;20060;-74
2023/12/25 07:02:51;;;;;;;16.40;4.78;;;;;;;10.70;100.00;100468.09;4899099;29;20202;-74
2023/12/25 07:05:17;;;;;;;12.95;4.38;;;;;;;10.70;100.00;100452.81;4896365;29;20024;-74
2023/12/25 07:07:42;;;;;;;11.73;4.22;;;;;;;10.70;100.00;100457.34;4897752;29;20117;-75
2023/12/25 07:10:08;;;;;;;12.18;4.38;;;;;;;10.69;100.00;100453.81;4898157;29;20035;-74
2023/12/25 07:12:33;;;;;;;14.43;4.70;;;;;;;10.70;100.00;100473.47;4879383;29;20480;-75
2023/12/25 07:14:59;;;;;;;12.13;4.20;;;;;;;10.70;100.00;100479.69;4880566;29;20123;-74
2023/12/25 07:17:24;;;;;;;16.08;5.53;;;;;;;10.70;100.00;100471.63;4892509;29;20035;-75
2023/12/25 07:19:49;;;;;;;14.88;5.15;;;;;;;10.70;100.00;100487.75;4900234;29;20032;-75
2023/12/25 07:22:14;;;;;;;16.27;5.53;;;;;;;10.70;100.00;100479.69;4880677;29;20035;-74
2023/12/25 07:24:40;;;;;;;14.93;5.65;;;;;;;10.71;100.00;100484.09;4894109;29;20031;-75
2023/12/25 07:27:05;;;;;;;13.10;4.65;;;;;;;10.72;100.00;100484.94;4895289;29;20044;-74
2023/12/25 07:29:30;;;;;;;14.68;4.97;;;;;;;10.73;100.00;100487.53;4890968;29;20040;-75
2023/12/25 07:31:56;;;;;;;13.95;5.35;;;;;;;10.73;100.00;100495.59;4894281;29;20434;-75
2023/12/25 07:34:22;;;;;;;16.23;5.72;;;;;;;10.74;100.00;100491.06;4880007;29;20059;-74
2023/12/25 07:36:47;;;;;;;14.77;5.20;;;;;;;10.75;100.00;100490.09;4897122;29;20517;-75
2023/12/25 07:39:14;;;;;;;16.95;5.63;;;;;;;10.75;100.00;100501.69;4880216;29;20120;-75
2023/12/25 07:41:41;;;;;;;12.93;4.93;;;;;;;10.77;100.00;100509.63;4878616;29;20106;-75
2023/12/25 07:44:06;;;;;;;12.90;4.65;;;;;;;10.75;100.00;100501.69;4895078;29;20028;-75
2023/12/25 07:46:32;;;;;;;13.50;4.97;;;;;;;10.77;100.00;100509.63;4892196;29;20534;-74
2023/12/25 07:48:57;;;;;;;13.00;4.38;;;;;;;10.76;100.00;100508.78;4876338;29;20028;-74
2023/12/25 07:51:23;;;;;;;11.02;4.13;;;;;;;10.75;100.00;100504.38;4892550;29;20029;-75
2023/12/25 07:53:48;;;;;;;10.43;4.05;;;;;;;10.75;100.00;100525.88;4899407;29;20028;-75
2023/12/25 07:56:14;;;;;;;12.40;4.38;;;;;;;10.74;100.00;100524.16;4884433;29;20034;-75
2023/12/25 07:58:39;;;;;;;11.90;4.00;;;;;;;10.74;100.00;100528.69;4894412;29;20481;-74
2023/12/25 08:01:04;;;;;;;12.00;4.40;;;;;;;10.74;100.00;100539.44;4878638;29;20024;-74
2023/12/25 08:03:30;;;;;;;14.55;4.80;;;;;;;10.72;100.00;100533.31;4882232;29;20168;-74
2023/12/25 08:05:55;;;;;;;11.13;3.63;;;;;;;10.71;100.00;100531.63;4879631;29;20028;-74
2023/12/25 08:08:20;;;;;;;11.98;4.05;;;;;;;10.71;100.00;100531.63;4894962;29;20083;-75
2023/12/25 08:10:46;;;;;;;10.38;3.83;;;;;;;10.71;100.00;100548.59;4895857;29;20043;-75
2023/12/25 08:13:11;;;;;;;9.95;3.90;;;;;;;10.70;100.00;100540.66;4876641;29;20032;-74
2023/12/25 08:15:36;;;;;;;10.80;3.90;;;;;;;10.69;100.00;100545.19;4899343;29;20044;-75
2023/12/25 08:18:03;;;;;;;14.38;3.95;;;;;;;10.68;100.00;100548.84;4903625;29;20024;-74
2023/12/25 08:20:28;;;;;;;11.82;3.88;;;;;;;10.69;100.00;100555.94;4892694;29;20059;-75
2023/12/25 08:22:53;;;;;;;10.65;4.00;;;;;;;10.69;100.00;100555.94;4897170;29;20032;-74
2023/12/25 08:25:18;;;;;;;15.70;4.15;;;;;;;10.67;100.00;100552.50;4879089;29;20504;-75
2023/12/25 08:27:44;;;;;;;11.57;3.80;;;;;;;10.69;100.00;100555.06;4891778;29;20047;-74
2023/12/25 08:30:10;;;;;;;11.18;3.90;;;;;;;10.68;100.00;100559.59;4893366;29;20107;-74
2023/12/25 08:32:36;;;;;;;8.73;3.42;;;;;;;10.69;100.00;100549.69;4872901;29;20033;-74
2023/12/25 08:35:01;;;;;;;11.02;3.85;;;;;;;10.66;100.00;100561.56;4902882;29;20040;-75
2023/12/25 08:37:26;;;;;;;12.15;4.30;;;;;;;10.67;100.00;100565.94;4900100;29;20423;-74
2023/12/25 08:39:52;;;;;;;10.65;4.07;;;;;;;10.67;100.00;100557.88;4885019;29;20040;-74
2023/12/25 08:42:17;;;;;;;11.80;3.75;;;;;;;10.67;100.00;100571.31;4904252;29;20050;-74
2023/12/25 08:44:43;;;;;;;12.65;4.32;;;;;;;10.67;100.00;100563.25;4883271;29;20032;-74
2023/12/25 08:47:08;;;;;;;10.63;4.03;;;;;;;10.66;100.00;100566.94;4900149;29;20507;-74
2023/12/25 08:49:36;;;;;;;9.60;3.33;;;;;;;10.67;100.00;100568.63;4875656;29;20039;-74
2023/12/25 08:52:01;;;;;;;11.57;4.05;;;;;;;10.68;100.00;100577.56;4884326;29;20043;-74
2023/12/25 08:54:27;;;;;;;11.43;4.15;;;;;;;10.66;100.00;100575.00;4894533;29;20501;-74
2023/12/25 08:56:52;;;;;;;14.98;4.82;;;;;;;10.68;100.00;100593.69;4894134;29;20103;-74
2023/12/25 08:59:17;;;;;;;13.70;4.75;;;;;;;10.69;100.00;100592.69;4899541;29;20509;-74
2023/12/25 09:01:43;;;;;;;12.05;4.32;;;;;;;10.68;100.00;100581.09;4880690;29;20145;-75
2023/12/25 09:04:08;;;;;;;14.00;4.53;;;;;;;10.69;100.00;100571.19;4893033;29;20089;-75
2023/12/25 09:06:33;;;;;;;15.40;5.32;;;;;;;10.68;100.00;100570.34;4894074;29;20065;-74
2023/12/25 09:08:59;;;;;;;12.90;4.70;;;;;;;10.68;100.00;100567.66;4895288;29;20032;-74
2023/12/25 09:11:24;;;;;;;13.75;4.55;;;;;;;10.69;100.00;100566.69;4877469;29;20490;-74
2023/12/25 09:13:49;;;;;;;13.75;5.05;;;;;;;10.69;100.00;100574.75;4877120;29;20437;-74
2023/12/25 09:16:15;;;;;;;14.98;4.65;;;;;;;10.70;100.00;100580.97;4897564;29;20032;-74
2023/12/25 09:18:40;;;;;;;12.13;4.20;;;;;;;10.69;100.00;100588.19;4896533;29;20063;-74
2023/12/25 09:21:05;;;;;;;12.63;4.32;;;;;;;10.70;100.00;100602.47;4891830;29;20036;-74
2023/12/25 09:23:31;;;;;;;12.98;4.50;;;;;;;10.70;100.00;100608.69;4893975;29;20065;-74
2023/12/25 09:25:56;;;;;;;12.80;4.20;;;;;;;10.72;100.00;100619.34;4895131;29;20711;-74
2023/12/25 09:28:22;;;;;;;12.88;4.28;;;;;;;10.71;100.00;100614.94;4897868;29;20036;-74
2023/12/25 09:30:47;;;;;;;12.60;3.95;;;;;;;10.70;100.00;100627.50;4898916;29;20036;-74
2023/12/25 09:33:12;;;;;;;12.00;4.18;;;;;;;10.71;100.00;100636.47;4899279;29;20111;-74
2023/12/25 09:35:38;;;;;;;11.02;4.13;;;;;;;10.72;100.00;100635.47;4879281;29;20504;-74
2023/12/25 09:38:03;;;;;;;12.90;4.15;;;;;;;10.71;100.00;100637.31;4896115;29;20028;-74
2023/12/25 09:40:30;;;;;;;11.07;3.85;;;;;;;10.70;100.00;100650.84;4877263;29;20453;-74
2023/12/25 09:42:57;;;;;;;10.05;3.72;;;;;;;10.71;100.00;100656.13;4890540;29;20418;-76
2023/12/25 09:45:26;;;;;;;10.32;3.63;;;;;;;10.69;100.00;100636.56;4873005;29;20128;-71
2023/12/25 09:47:52;;;;;;;10.73;3.50;;;;;;;10.70;100.00;100649.00;4877241;29;20036;-72
2023/12/25 09:50:19;;;;;;;12.18;3.50;;;;;;;10.71;100.00;100650.75;4879903;29;20274;-72
2023/12/25 09:52:45;;;;;;;8.07;3.22;;;;;;;10.70;100.00;100643.66;4895128;29;20037;-72
2023/12/25 09:55:10;;;;;;;7.55;2.95;;;;;;;10.71;100.00;100629.25;4894320;29;20060;-73
2023/12/25 09:57:37;;;;;;;6.13;2.83;;;;;;;10.72;100.00;100630.97;4897452;29;20115;-73
2023/12/25 10:00:04;;;;;;;6.95;2.90;;;;;;;10.72;100.00;100627.41;4896193;29;20087;-72
2023/12/25 10:02:36;;;;;;;10.95;3.28;;;;;;;10.72;100.00;100632.78;4878587;29;20036;-73
2023/12/25 10:05:01;;;;;;;9.38;3.28;;;;;;;10.71;100.00;100634.63;4879947;29;20038;-74
2023/12/25 10:07:26;;;;;;;11.15;3.38;;;;;;;10.71;100.00;100639.16;4876404;29;20033;-73
2023/12/25 10:09:53;;;;;;;8.65;3.13;;;;;;;10.70;100.00;100637.41;4894720;29;20036;-72
2023/12/25 10:12:19;;;;;;;5.80;2.33;;;;;;;10.58;100.00;100648.13;4879555;29;20063;-72
2023/12/25 10:14:45;;;;;;;1.65;0.98;;;;;;;10.44;100.00;100651.00;4877698;29;20029;-71
2023/12/25 10:17:11;;;;;;;1.30;1.02;;;;;;;10.30;100.00;100657.41;4894320;29;20072;-72
2023/12/25 10:19:51;;;;;;;4.38;1.27;;;;;;;10.21;100.00;100648.22;4877671;29;20460;-73
2023/12/25 10:22:38;;;;;;;3.92;1.58;;;;;;;10.17;100.00;100662.00;4890286;29;20071;-73
2023/12/25 10:25:09;;;;;;;5.55;1.90;;;;;;;10.08;100.00;100667.06;4872372;29;20079;-71
2023/12/25 10:27:36;;;;;;;5.35;1.63;;;;;;;10.03;100.00;100669.25;4897685;29;20052;-71
2023/12/25 10:30:03;;;;;;;9.77;2.25;;;;;;;9.99;100.00;100653.50;4899235;29;20500;-72
2023/12/25 10:32:28;;;;;;;4.85;1.60;;;;;;;9.96;100.00;100660.78;4895512;29;20088;-72
2023/12/25 10:35:14;;;;;;;9.55;2.17;;;;;;;10.00;100.00;100664.13;4896312;29;20471;-71
2023/12/25 10:37:40;;;;;;;8.00;1.95;;;;;;;9.96;100.00;100662.63;4895532;29;20033;-72
2023/12/25 10:40:23;;;;;;;5.63;1.90;;;;;;;9.95;100.00;100656.38;4896043;29;20408;-73
2023/12/25 10:42:51;;;;;;;5.50;1.80;;;;;;;9.90;100.00;100661.25;4875988;29;20032;-71
2023/12/25 10:45:27;;;;;;;3.65;1.75;;;;;;;9.89;100.00;100658.66;4897383;29;20020;-72
2023/12/25 10:47:53;;;;;;;4.30;2.17;;;;;;;9.84;100.00;100658.13;4878554;29;20140;-72
2023/12/25 10:50:26;;;;;;;9.23;2.38;;;;;;;9.84;100.00;100658.13;4900108;29;20036;-72
2023/12/25 10:52:53;;;;;;;5.85;2.45;;;;;;;9.83;100.00;100665.34;4880247;29;20032;-73
2023/12/25 10:55:37;;;;;;;2.95;1.75;;;;;;;9.84;100.00;100663.50;4873894;29;20028;-72
2023/12/25 10:58:05;;;;;;;7.00;1.85;;;;;;;9.78;100.00;100660.31;4896845;29;20334;-75
2023/12/25 11:00:35;;;;;;;4.38;1.98;;;;;;;9.77;100.00;100661.28;4900084;29;20033;-75
2023/12/25 11:03:02;;;;;;;8.43;2.15;;;;;;;9.78;100.00;100657.63;4902546;29;20040;-74
2023/12/25 11:05:28;;;;;;;10.00;3.10;;;;;;;9.77;100.00;100661.28;4900437;29;20579;-72